createdAt,value
2019-03-12T00:01:31.176Z,2.90
2019-03-12T00:03:58.556Z,3.10
2019-03-12T00:06:45.320Z,2.37
2019-03-12T00:09:12.631Z,2.37
2019-03-12T00:11:40.089Z,2.77
2019-03-12T00:14:07.407Z,2.27
2019-03-12T00:16:34.796Z,3.60
2019-03-12T00:19:02.097Z,2.83
2019-03-12T00:21:29.501Z,2.47
2019-03-12T00:23:56.801Z,2.70
2019-03-12T00:26:24.227Z,1.70
2019-03-12T00:28:51.528Z,2.47
2019-03-12T00:31:18.823Z,3.53
2019-03-12T00:33:46.107Z,2.53
2019-03-12T00:36:13.406Z,2.63
2019-03-12T00:39:00.196Z,1.80
2019-03-12T00:41:27.675Z,1.97
2019-03-12T00:44:14.458Z,2.43
2019-03-12T00:46:42.024Z,2.87
2019-03-12T00:49:09.308Z,2.07
2019-03-12T00:51:36.740Z,2.10
2019-03-12T00:54:04.069Z,2.47
2019-03-12T00:56:31.347Z,2.70
2019-03-12T00:58:58.655Z,2.47
2019-03-12T01:01:25.963Z,2.40
2019-03-12T01:03:53.405Z,2.60
2019-03-12T01:06:20.782Z,2.60
2019-03-12T01:09:07.547Z,2.67
2019-03-12T01:11:34.852Z,2.40
2019-03-12T01:14:21.633Z,3.13
2019-03-12T01:16:49.068Z,2.73
2019-03-12T01:19:16.343Z,2.47
2019-03-12T01:21:43.656Z,2.80
2019-03-12T01:24:11.068Z,3.10
2019-03-12T01:26:57.928Z,3.30
2019-03-12T01:29:25.256Z,3.00
2019-03-12T01:31:52.575Z,3.33
2019-03-12T01:34:20.058Z,3.20
2019-03-12T01:36:47.383Z,3.00
2019-03-12T01:39:14.914Z,3.43
2019-03-12T01:41:42.230Z,3.60
2019-03-12T01:44:09.643Z,3.63
2019-03-12T01:46:36.930Z,3.40
2019-03-12T01:49:23.818Z,3.40
2019-03-12T01:51:52.435Z,3.10
2019-03-12T01:54:19.844Z,3.67
2019-03-12T01:56:47.142Z,4.50
2019-03-12T01:59:14.431Z,3.50
2019-03-12T02:01:41.849Z,4.43
2019-03-12T02:04:09.164Z,4.40
2019-03-12T02:06:36.563Z,3.50
2019-03-12T02:09:06.638Z,4.27
2019-03-12T02:11:33.936Z,4.33
2019-03-12T02:14:01.235Z,4.27
2019-03-12T02:16:28.575Z,4.47
2019-03-12T02:18:55.904Z,3.90
2019-03-12T02:21:23.335Z,4.40
2019-03-12T02:23:50.652Z,4.73
2019-03-12T02:26:17.947Z,4.30
2019-03-12T02:28:45.246Z,4.20
2019-03-12T02:31:12.642Z,3.93
2019-03-12T02:33:39.927Z,5.50
2019-03-12T02:36:07.327Z,5.50
2019-03-12T02:38:34.659Z,4.33
2019-03-12T02:41:02.018Z,4.40
2019-03-12T02:43:29.438Z,4.10
2019-03-12T02:45:56.823Z,4.03
2019-03-12T02:48:24.251Z,4.07
2019-03-12T02:50:51.559Z,4.13
2019-03-12T02:53:18.908Z,4.10
2019-03-12T02:55:46.197Z,4.43
2019-03-12T02:58:13.667Z,4.57
2019-03-12T03:00:41.101Z,4.10
2019-03-12T03:03:08.481Z,4.13
2019-03-12T03:05:45.654Z,4.00
2019-03-12T03:08:12.975Z,3.53
2019-03-12T03:10:40.295Z,3.70
2019-03-12T03:13:07.706Z,3.53
2019-03-12T03:15:42.892Z,3.90
2019-03-12T03:18:10.317Z,3.83
2019-03-12T03:20:37.655Z,4.07
2019-03-12T03:23:05.035Z,4.33
2019-03-12T03:25:32.907Z,3.90
2019-03-12T03:28:00.214Z,4.90
2019-03-12T03:30:27.643Z,4.17
2019-03-12T03:32:55.120Z,4.00
2019-03-12T03:35:22.523Z,3.30
2019-03-12T03:37:49.946Z,4.73
2019-03-12T03:40:18.362Z,3.63
2019-03-12T03:42:45.720Z,3.27
2019-03-12T03:45:13.139Z,3.80
2019-03-12T03:47:40.457Z,3.97
2019-03-12T03:50:08.454Z,3.50
2019-03-12T03:52:35.751Z,3.57
2019-03-12T03:55:03.518Z,3.60
2019-03-12T03:57:30.918Z,3.20
2019-03-12T03:59:58.289Z,3.20
2019-03-12T04:02:25.619Z,4.43
2019-03-12T04:04:52.944Z,3.10
2019-03-12T04:07:20.382Z,3.20
2019-03-12T04:09:47.691Z,2.70
2019-03-12T04:12:34.599Z,3.97
2019-03-12T04:15:02.119Z,3.20
2019-03-12T04:17:29.657Z,3.00
2019-03-12T04:19:57.045Z,3.10
2019-03-12T04:22:24.481Z,3.07
2019-03-12T04:24:51.906Z,3.10
2019-03-12T04:27:38.793Z,2.90
2019-03-12T04:30:25.574Z,3.17
2019-03-12T04:32:52.946Z,2.87
2019-03-12T04:35:21.031Z,3.70
2019-03-12T04:37:48.349Z,2.90
2019-03-12T04:40:15.762Z,3.53
2019-03-12T04:43:02.640Z,2.77
2019-03-12T04:45:29.963Z,2.63
2019-03-12T04:47:57.249Z,3.23
2019-03-12T04:50:24.557Z,3.50
2019-03-12T04:52:51.919Z,2.70
2019-03-12T04:55:19.378Z,2.40
2019-03-12T04:57:46.697Z,2.53
2019-03-12T05:00:15.191Z,2.60
2019-03-12T05:02:42.471Z,4.97
2019-03-12T05:05:09.778Z,2.30
2019-03-12T05:07:37.207Z,3.53
2019-03-12T05:10:04.966Z,2.60
2019-03-12T05:12:32.455Z,2.60
2019-03-12T05:15:19.270Z,2.67
2019-03-12T05:17:46.795Z,2.57
2019-03-12T05:20:16.019Z,2.23
2019-03-12T05:22:43.410Z,2.70
2019-03-12T05:25:11.026Z,2.33
2019-03-12T05:27:38.314Z,3.10
2019-03-12T05:30:25.102Z,4.27
2019-03-12T05:32:52.427Z,2.20
2019-03-12T05:35:19.846Z,2.60
2019-03-12T05:37:47.259Z,2.90
2019-03-12T05:40:14.674Z,2.93
2019-03-12T05:42:41.962Z,3.70
2019-03-12T05:45:09.507Z,3.17
2019-03-12T05:47:36.963Z,2.57
2019-03-12T05:50:05.070Z,3.17
2019-03-12T05:52:32.514Z,3.17
2019-03-12T05:54:59.816Z,2.43
2019-03-12T05:57:27.170Z,2.90
2019-03-12T05:59:54.590Z,2.83
2019-03-12T06:02:21.912Z,3.07
2019-03-12T06:04:49.477Z,2.83
2019-03-12T06:07:16.807Z,2.93
2019-03-12T06:09:44.184Z,3.00
2019-03-12T06:12:11.667Z,2.80
2019-03-12T06:14:39.041Z,2.83
2019-03-12T06:17:06.384Z,2.67
2019-03-12T06:19:36.819Z,2.50
2019-03-12T06:22:04.135Z,3.17
2019-03-12T06:24:31.627Z,3.17
2019-03-12T06:27:03.304Z,3.27
2019-03-12T06:29:30.862Z,2.53
2019-03-12T06:32:23.887Z,2.97
2019-03-12T06:35:05.161Z,2.87
2019-03-12T06:37:50.962Z,3.10
2019-03-12T06:40:23.866Z,2.33
2019-03-12T06:43:22.795Z,2.87
2019-03-12T06:46:08.736Z,3.60
2019-03-12T06:48:41.668Z,2.60
2019-03-12T06:51:34.685Z,3.30
2019-03-12T06:54:24.636Z,2.70
2019-03-12T06:57:05.427Z,2.80
2019-03-12T06:59:48.551Z,2.60
2019-03-12T07:02:41.675Z,2.77
2019-03-12T07:05:27.234Z,3.10
2019-03-12T07:08:28.957Z,2.80
2019-03-12T07:11:15.921Z,2.80
2019-03-12T07:13:49.518Z,2.43
2019-03-12T07:16:51.789Z,2.80
2019-03-12T07:19:54.216Z,2.80
2019-03-12T07:22:53.380Z,3.07
2019-03-12T07:25:35.348Z,3.20
2019-03-12T07:28:24.888Z,2.50
2019-03-12T07:31:11.809Z,2.67
2019-03-12T07:34:04.652Z,2.53
2019-03-12T07:36:51.885Z,2.73
2019-03-12T07:39:41.468Z,3.33
2019-03-12T07:42:26.814Z,2.80
2019-03-12T07:45:12.751Z,2.90
2019-03-12T07:47:59.681Z,2.50
2019-03-12T07:50:36.835Z,2.33
2019-03-12T07:53:36.074Z,2.20
2019-03-12T07:56:35.108Z,2.40
2019-03-12T07:59:32.135Z,1.97
2019-03-12T08:02:17.739Z,2.20
2019-03-12T08:04:54.742Z,2.50
2019-03-12T08:07:40.038Z,2.97
2019-03-12T08:10:16.590Z,2.00
2019-03-12T08:13:15.735Z,2.80
2019-03-12T08:16:17.534Z,2.13
2019-03-12T08:18:53.833Z,2.27
2019-03-12T08:21:34.583Z,2.10
2019-03-12T08:24:17.263Z,2.33
2019-03-12T08:26:50.095Z,2.47
2019-03-12T08:29:52.646Z,2.03
2019-03-12T08:32:28.065Z,2.00
2019-03-12T08:35:20.764Z,1.93
2019-03-12T08:38:06.128Z,2.83
2019-03-12T08:40:52.766Z,2.27
2019-03-12T08:43:38.245Z,1.83
2019-03-12T08:46:27.851Z,2.53
2019-03-12T08:49:13.443Z,2.23
2019-03-12T08:51:49.130Z,2.20
2019-03-12T08:54:34.629Z,2.97
2019-03-12T08:57:24.353Z,2.70
2019-03-12T09:00:00.772Z,3.00
2019-03-12T09:03:02.946Z,3.00
2019-03-12T09:05:42.504Z,2.80
2019-03-12T09:08:22.047Z,3.50
2019-03-12T09:11:14.872Z,2.73
2019-03-12T09:13:52.494Z,2.80
2019-03-12T09:16:42.494Z,3.00
2019-03-12T09:19:28.128Z,2.63
2019-03-12T09:22:27.002Z,2.87
2019-03-12T09:25:03.690Z,3.57
2019-03-12T09:27:49.429Z,2.50
2019-03-12T09:30:34.054Z,2.57
2019-03-12T09:33:40.335Z,2.73
2019-03-12T09:36:15.661Z,2.73
2019-03-12T09:38:50.947Z,2.97
2019-03-12T09:41:49.850Z,3.57
2019-03-12T09:44:39.758Z,2.70
2019-03-12T09:47:21.389Z,2.57
2019-03-12T09:50:02.597Z,2.40
2019-03-12T09:53:08.203Z,3.37
2019-03-12T09:55:50.227Z,2.43
2019-03-12T09:58:49.016Z,2.50
2019-03-12T10:01:35.847Z,2.83
2019-03-12T10:04:23.032Z,2.37
2019-03-12T10:07:09.551Z,2.40
2019-03-12T10:10:05.658Z,2.27
2019-03-12T10:12:51.035Z,2.10
2019-03-12T10:15:36.516Z,3.10
2019-03-12T10:18:23.348Z,3.53
2019-03-12T10:21:16.085Z,2.40
2019-03-12T10:23:52.334Z,2.87
2019-03-12T10:26:38.426Z,2.30
2019-03-12T10:29:13.387Z,3.10
2019-03-12T10:31:58.677Z,2.70
2019-03-12T10:35:00.968Z,2.60
2019-03-12T10:37:47.953Z,2.70
2019-03-12T10:40:37.902Z,2.73
2019-03-12T10:43:38.383Z,2.30
2019-03-12T10:46:34.307Z,2.33
2019-03-12T10:49:01.905Z,2.30
2019-03-12T10:51:48.935Z,2.37
2019-03-12T10:54:29.457Z,2.30
2019-03-12T10:59:41.510Z,2.33
2019-03-12T11:02:08.961Z,1.87
2019-03-12T11:04:36.478Z,2.60
2019-03-12T11:07:15.804Z,2.27
2019-03-12T11:09:33.279Z,1.83
2019-03-12T11:12:00.725Z,2.00
2019-03-12T11:14:28.171Z,2.47
2019-03-12T11:16:55.831Z,2.60
2019-03-12T11:19:23.336Z,2.50
2019-03-12T11:21:51.059Z,2.00
2019-03-12T11:24:18.563Z,2.20
2019-03-12T11:26:46.093Z,2.20
2019-03-12T11:29:13.645Z,1.87
2019-03-12T11:31:41.101Z,2.67
2019-03-12T11:34:08.565Z,2.53
2019-03-12T11:36:35.883Z,2.70
2019-03-12T11:39:04.412Z,2.00
2019-03-12T11:41:31.816Z,2.03
2019-03-12T11:44:37.665Z,2.20
2019-03-12T11:47:15.519Z,2.63
2019-03-12T11:49:47.654Z,2.87
2019-03-12T11:52:15.261Z,2.10
2019-03-12T11:54:42.744Z,1.80
2019-03-12T11:57:10.529Z,2.87
2019-03-12T11:59:38.074Z,1.70
2019-03-12T12:02:05.662Z,2.27
2019-03-12T12:04:33.167Z,2.17
2019-03-12T12:07:00.969Z,1.70
2019-03-12T12:09:31.480Z,1.80
2019-03-12T12:11:58.906Z,2.50
2019-03-12T12:14:26.323Z,2.10
2019-03-12T12:16:53.844Z,2.40
2019-03-12T12:19:21.230Z,2.10
2019-03-12T12:21:48.708Z,2.00
2019-03-12T12:24:16.095Z,1.67
2019-03-12T12:26:44.140Z,1.60
2019-03-12T12:29:30.973Z,1.70
2019-03-12T12:31:58.330Z,1.97
2019-03-12T12:34:25.618Z,1.90
2019-03-12T12:36:53.071Z,1.90
2019-03-12T12:39:20.475Z,1.90
2019-03-12T12:41:47.792Z,1.80
2019-03-12T12:44:15.425Z,2.00
2019-03-12T12:46:45.670Z,2.07
2019-03-12T12:49:12.993Z,2.60
2019-03-12T12:51:40.420Z,2.50
2019-03-12T12:54:09.696Z,2.13
2019-03-12T12:56:36.928Z,2.10
2019-03-12T12:59:04.392Z,2.37
2019-03-12T13:01:31.759Z,2.50
2019-03-12T13:04:11.860Z,2.50
2019-03-12T13:06:39.245Z,2.87
2019-03-12T13:09:06.538Z,2.60
2019-03-12T13:11:33.923Z,2.90
2019-03-12T13:14:01.416Z,2.30
2019-03-12T13:16:28.723Z,2.00
2019-03-12T13:18:56.127Z,2.03
2019-03-12T13:21:23.549Z,2.23
2019-03-12T13:23:51.015Z,2.17
2019-03-12T13:26:18.314Z,2.57
2019-03-12T13:28:45.620Z,2.43
2019-03-12T13:31:12.928Z,3.07
2019-03-12T13:33:40.351Z,2.67
2019-03-12T13:36:13.559Z,2.27
2019-03-12T13:39:00.420Z,2.23
2019-03-12T13:41:41.423Z,2.07
2019-03-12T13:44:08.853Z,3.40
2019-03-12T13:46:36.242Z,2.50
2019-03-12T13:49:03.719Z,2.27
2019-03-12T13:51:31.101Z,2.30
2019-03-12T13:54:17.963Z,2.67
2019-03-12T13:56:45.349Z,2.17
2019-03-12T13:59:12.859Z,2.37
2019-03-12T14:01:40.177Z,2.10
2019-03-12T14:04:10.961Z,2.17
2019-03-12T14:06:37.692Z,2.60
2019-03-12T14:09:05.352Z,2.77
2019-03-12T14:11:32.744Z,2.20
2019-03-12T14:14:19.911Z,2.47
2019-03-12T14:16:48.806Z,2.47
2019-03-12T14:19:16.278Z,2.60
2019-03-12T14:21:43.877Z,2.67
2019-03-12T14:24:11.675Z,2.30
2019-03-12T14:26:39.000Z,2.73
2019-03-12T14:29:12.935Z,2.93
2019-03-12T14:31:40.338Z,2.90
2019-03-12T14:34:07.641Z,2.60
2019-03-12T14:36:35.072Z,2.77
2019-03-12T14:39:21.850Z,2.67
2019-03-12T14:41:49.323Z,3.00
2019-03-12T14:44:16.607Z,2.73
2019-03-12T14:46:44.041Z,2.43
2019-03-12T14:49:11.374Z,2.63
2019-03-12T14:52:35.872Z,2.70
2019-03-12T14:55:03.854Z,2.80
2019-03-12T14:57:31.157Z,2.50
2019-03-12T14:59:58.600Z,2.47
2019-03-12T15:02:45.395Z,2.47
2019-03-12T15:05:12.730Z,2.60
2019-03-12T15:07:40.143Z,2.53
2019-03-12T15:10:08.628Z,2.77
2019-03-12T15:12:55.527Z,2.43
2019-03-12T15:15:23.055Z,3.00
2019-03-12T15:17:50.658Z,2.90
2019-03-12T15:20:17.973Z,2.57
2019-03-12T15:22:45.463Z,2.33
2019-03-12T15:25:12.943Z,2.40
2019-03-12T15:27:40.352Z,2.60
2019-03-12T15:30:11.304Z,2.70
2019-03-12T15:32:38.986Z,2.77
2019-03-12T15:35:06.418Z,2.50
2019-03-12T15:37:33.789Z,2.60
2019-03-12T15:40:01.107Z,2.73
2019-03-12T15:42:28.527Z,2.87
2019-03-12T15:44:55.968Z,2.63
2019-03-12T15:47:24.298Z,2.33
2019-03-12T15:50:09.526Z,2.30
2019-03-12T15:52:35.017Z,2.57
2019-03-12T15:55:02.459Z,3.20
2019-03-12T15:57:29.764Z,2.37
2019-03-12T15:59:57.074Z,2.60
2019-03-12T16:02:24.543Z,2.30
2019-03-12T16:04:52.007Z,2.00
2019-03-12T16:07:19.359Z,2.37
2019-03-12T16:09:46.842Z,2.60
2019-03-12T16:12:14.275Z,2.60
2019-03-12T16:14:43.085Z,2.57
2019-03-12T16:17:10.867Z,2.70
2019-03-12T16:19:38.740Z,2.50
2019-03-12T16:22:06.139Z,2.60
2019-03-12T16:24:33.575Z,2.50
2019-03-12T16:27:03.447Z,2.80
2019-03-12T16:29:30.892Z,2.13
2019-03-12T16:31:58.207Z,2.33
2019-03-12T16:34:25.790Z,2.50
2019-03-12T16:36:53.158Z,2.77
2019-03-12T16:39:20.607Z,2.67
2019-03-12T16:41:47.923Z,2.70
2019-03-12T16:44:15.355Z,3.40
2019-03-12T16:46:42.667Z,2.93
2019-03-12T16:49:10.243Z,2.90
2019-03-12T16:51:37.642Z,2.67
2019-03-12T16:54:05.590Z,3.20
2019-03-12T16:56:44.751Z,2.80
2019-03-12T16:59:02.673Z,3.00
2019-03-12T17:01:29.972Z,3.00
2019-03-12T17:03:57.379Z,2.90
2019-03-12T17:06:24.688Z,2.80
2019-03-12T17:08:52.120Z,2.40
2019-03-12T17:11:19.439Z,3.00
2019-03-12T17:13:46.759Z,3.33
2019-03-12T17:16:17.015Z,2.93
2019-03-12T17:18:44.504Z,2.47
2019-03-12T17:21:11.951Z,3.47
2019-03-12T17:23:39.759Z,3.10
2019-03-12T17:26:07.116Z,3.40
2019-03-12T17:28:34.492Z,2.90
2019-03-12T17:31:01.899Z,3.00
2019-03-12T17:33:29.235Z,3.13
2019-03-12T17:35:56.711Z,3.00
2019-03-12T17:38:24.048Z,2.80
2019-03-12T17:40:51.399Z,2.90
2019-03-12T17:43:18.745Z,3.37
2019-03-12T17:45:46.313Z,3.37
2019-03-12T17:48:13.735Z,3.77
2019-03-12T17:50:41.063Z,3.60
2019-03-12T17:53:08.448Z,3.80
2019-03-12T17:55:35.859Z,3.90
2019-03-12T17:58:03.423Z,3.27
2019-03-12T18:00:33.886Z,3.60
2019-03-12T18:03:01.216Z,3.30
2019-03-12T18:05:28.803Z,3.83
2019-03-12T18:07:56.139Z,3.70
2019-03-12T18:10:23.618Z,3.67
2019-03-12T18:12:51.063Z,3.70
2019-03-12T18:15:19.618Z,2.47
2019-03-12T18:17:47.519Z,2.63
2019-03-12T18:20:14.833Z,0.97
2019-03-12T18:22:42.298Z,1.10
2019-03-12T18:25:15.526Z,0.80
2019-03-12T18:27:42.971Z,1.33
2019-03-12T18:30:12.488Z,1.00
2019-03-12T18:32:39.920Z,1.00
2019-03-12T18:35:07.391Z,1.47
2019-03-12T18:37:34.819Z,0.77
2019-03-12T18:40:02.210Z,0.50
2019-03-12T18:42:49.187Z,1.07
2019-03-12T18:45:18.247Z,0.73
2019-03-12T18:47:45.544Z,0.73
2019-03-12T18:50:32.335Z,0.67
2019-03-12T18:52:59.695Z,1.13
2019-03-12T18:55:44.609Z,0.70
2019-03-12T18:58:11.929Z,0.73
2019-03-12T19:00:39.274Z,0.83
2019-03-12T19:03:06.769Z,0.80
2019-03-12T19:05:34.073Z,1.00
2019-03-12T19:08:01.490Z,1.23
2019-03-12T19:10:28.843Z,0.93
2019-03-12T19:12:56.331Z,0.80
2019-03-12T19:15:23.738Z,0.73
2019-03-12T19:17:51.107Z,0.90
2019-03-12T19:20:18.686Z,0.77
2019-03-12T19:22:46.065Z,0.93
2019-03-12T19:25:13.572Z,0.70
2019-03-12T19:28:01.758Z,0.90
2019-03-12T19:30:29.340Z,1.00
2019-03-12T19:33:22.918Z,1.30
2019-03-12T19:35:46.399Z,1.17
2019-03-12T19:38:13.785Z,0.83
2019-03-12T19:40:41.262Z,0.90
2019-03-12T19:43:08.734Z,1.50
2019-03-12T19:45:56.686Z,0.83
2019-03-12T19:48:25.845Z,0.93
2019-03-12T19:50:53.272Z,0.90
2019-03-12T19:53:20.760Z,1.10
2019-03-12T19:55:48.180Z,1.30
2019-03-12T19:58:15.550Z,1.20
2019-03-12T20:01:02.505Z,1.00
2019-03-12T20:03:29.952Z,1.13
2019-03-12T20:05:57.359Z,0.77
2019-03-12T20:08:24.843Z,1.30
2019-03-12T20:11:42.110Z,1.47
2019-03-12T20:14:58.108Z,1.17
2019-03-12T20:18:19.345Z,1.40
2019-03-12T20:21:43.668Z,1.10
2019-03-12T20:24:50.124Z,1.03
2019-03-12T20:27:55.226Z,1.40
2019-03-12T20:31:00.401Z,0.93
2019-03-12T20:33:54.847Z,1.07
2019-03-12T20:37:14.795Z,1.00
2019-03-12T20:40:23.873Z,1.67
2019-03-12T20:43:04.124Z,1.40
2019-03-12T20:46:09.826Z,1.27
2019-03-12T20:49:13.868Z,1.13
2019-03-12T20:52:32.213Z,1.43
2019-03-12T20:55:46.695Z,1.33
2019-03-12T20:59:01.821Z,1.07
2019-03-12T21:02:14.274Z,1.47
2019-03-12T21:05:17.424Z,1.30
2019-03-12T21:08:22.596Z,1.13
2019-03-12T21:11:36.240Z,1.30
2019-03-12T21:14:55.407Z,1.17
2019-03-12T21:17:51.584Z,2.20
2019-03-12T21:21:02.607Z,1.90
2019-03-12T21:24:01.664Z,1.30
2019-03-12T21:27:29.013Z,1.20
2019-03-12T21:29:55.302Z,1.57
2019-03-12T21:32:22.770Z,1.63
2019-03-12T21:34:50.261Z,1.57
2019-03-12T21:37:17.785Z,1.83
2019-03-12T21:40:05.026Z,1.57
2019-03-12T21:42:32.491Z,1.97
2019-03-12T21:44:59.903Z,1.50
2019-03-12T21:47:27.364Z,1.60
2019-03-12T21:49:54.783Z,2.27
2019-03-12T21:52:41.553Z,1.90
2019-03-12T21:55:09.547Z,1.83
2019-03-12T21:57:36.952Z,1.87
2019-03-12T22:00:05.888Z,1.83
2019-03-12T22:02:33.233Z,1.93
2019-03-12T22:05:00.560Z,1.40
2019-03-12T22:07:47.474Z,1.40
2019-03-12T22:10:16.481Z,1.77
2019-03-12T22:12:43.860Z,1.63
2019-03-12T22:15:11.332Z,2.10
2019-03-12T22:17:38.623Z,2.17
2019-03-12T22:20:07.314Z,2.10
2019-03-12T22:22:41.712Z,2.10
2019-03-12T22:25:10.152Z,2.07
2019-03-12T22:27:37.450Z,2.13
2019-03-12T22:30:09.154Z,2.40
2019-03-12T22:32:56.065Z,1.87
2019-03-12T22:35:23.415Z,1.83
2019-03-12T22:38:10.219Z,1.67
2019-03-12T22:40:37.656Z,1.90
2019-03-12T22:43:05.094Z,1.50
2019-03-12T22:45:32.549Z,2.77
2019-03-12T22:48:00.147Z,1.70
2019-03-12T22:50:27.465Z,1.80
2019-03-12T22:52:54.902Z,1.80
2019-03-12T22:55:22.268Z,1.87
2019-03-12T22:57:49.811Z,2.67
2019-03-12T23:00:17.116Z,2.03
2019-03-12T23:02:44.570Z,2.40
2019-03-12T23:05:12.706Z,2.33
2019-03-12T23:07:39.986Z,1.80
2019-03-12T23:10:26.778Z,1.87
2019-03-12T23:12:54.303Z,2.13
2019-03-12T23:15:21.625Z,2.00
2019-03-12T23:17:49.031Z,1.97
2019-03-12T23:20:17.729Z,2.00
2019-03-12T23:22:45.022Z,2.30
2019-03-12T23:25:31.921Z,2.17
2019-03-12T23:27:59.224Z,1.83
2019-03-12T23:30:28.690Z,1.50
2019-03-12T23:32:55.895Z,2.47
2019-03-12T23:35:23.210Z,2.27
2019-03-12T23:37:50.644Z,2.13
2019-03-12T23:40:17.935Z,2.23
2019-03-12T23:42:45.308Z,3.13
2019-03-12T23:45:12.723Z,2.63
2019-03-12T23:47:40.112Z,2.57
2019-03-12T23:50:08.264Z,2.17
2019-03-12T23:52:35.583Z,1.80
2019-03-12T23:55:02.896Z,2.10
2019-03-12T23:57:49.840Z,2.43
